sensor_id;sensor_type;location;lat;lon;timestamp;P1;durP1;ratioP1;P2;durP2;ratioP2
47960;SDS011;33721;48.852;9.936;2023-04-08T00:01:19;14.25;;;7.90;;
47960;SDS011;33721;48.852;9.936;2023-04-08T00:03:45;17.60;;;7.80;;
47960;SDS011;33721;48.852;9.936;2023-04-08T00:06:10;14.48;;;7.70;;
47960;SDS011;33721;48.852;9.936;2023-04-08T00:08:36;15.23;;;8.05;;
47960;SDS011;33721;48.852;9.936;2023-04-08T00:11:01;17.45;;;8.32;;
47960;SDS011;33721;48.852;9.936;2023-04-08T00:13:27;16.42;;;7.78;;
47960;SDS011;33721;48.852;9.936;2023-04-08T00:15:53;13.57;;;7.80;;
47960;SDS011;33721;48.852;9.936;2023-04-08T00:18:18;14.95;;;8.27;;
47960;SDS011;33721;48.852;9.936;2023-04-08T00:20:44;12.85;;;7.70;;
47960;SDS011;33721;48.852;9.936;2023-04-08T00:23:10;13.55;;;8.23;;
47960;SDS011;33721;48.852;9.936;2023-04-08T00:25:36;16.92;;;8.50;;
47960;SDS011;33721;48.852;9.936;2023-04-08T00:28:01;14.93;;;7.97;;
47960;SDS011;33721;48.852;9.936;2023-04-08T00:30:27;14.45;;;8.20;;
47960;SDS011;33721;48.852;9.936;2023-04-08T00:32:53;17.90;;;8.50;;
47960;SDS011;33721;48.852;9.936;2023-04-08T00:35:19;13.75;;;7.45;;
47960;SDS011;33721;48.852;9.936;2023-04-08T00:37:44;13.98;;;7.43;;
47960;SDS011;33721;48.852;9.936;2023-04-08T00:40:10;12.32;;;7.38;;
47960;SDS011;33721;48.852;9.936;2023-04-08T00:42:36;12.90;;;7.65;;
47960;SDS011;33721;48.852;9.936;2023-04-08T00:45:02;12.13;;;7.68;;
47960;SDS011;33721;48.852;9.936;2023-04-08T00:47:28;14.43;;;7.63;;
47960;SDS011;33721;48.852;9.936;2023-04-08T00:49:54;13.93;;;7.25;;
47960;SDS011;33721;48.852;9.936;2023-04-08T00:52:20;13.75;;;7.50;;
47960;SDS011;33721;48.852;9.936;2023-04-08T00:54:45;14.55;;;8.05;;
47960;SDS011;33721;48.852;9.936;2023-04-08T00:57:11;14.70;;;8.50;;
47960;SDS011;33721;48.852;9.936;2023-04-08T00:59:37;15.95;;;7.82;;
47960;SDS011;33721;48.852;9.936;2023-04-08T01:02:39;13.40;;;7.70;;
47960;SDS011;33721;48.852;9.936;2023-04-08T01:05:06;15.80;;;7.55;;
47960;SDS011;33721;48.852;9.936;2023-04-08T01:07:44;14.13;;;8.13;;
47960;SDS011;33721;48.852;9.936;2023-04-08T01:10:20;17.50;;;8.13;;
47960;SDS011;33721;48.852;9.936;2023-04-08T01:12:56;13.30;;;7.55;;
47960;SDS011;33721;48.852;9.936;2023-04-08T01:15:25;12.45;;;8.00;;
47960;SDS011;33721;48.852;9.936;2023-04-08T01:17:52;12.50;;;7.55;;
47960;SDS011;33721;48.852;9.936;2023-04-08T01:20:20;18.05;;;7.75;;
47960;SDS011;33721;48.852;9.936;2023-04-08T01:23:01;14.63;;;8.05;;
47960;SDS011;33721;48.852;9.936;2023-04-08T01:25:38;14.20;;;7.40;;
47960;SDS011;33721;48.852;9.936;2023-04-08T01:28:10;14.65;;;7.50;;
47960;SDS011;33721;48.852;9.936;2023-04-08T01:30:38;17.13;;;8.80;;
47960;SDS011;33721;48.852;9.936;2023-04-08T01:33:06;15.57;;;8.00;;
47960;SDS011;33721;48.852;9.936;2023-04-08T01:35:34;14.48;;;8.07;;
47960;SDS011;33721;48.852;9.936;2023-04-08T01:38:00;14.80;;;7.55;;
47960;SDS011;33721;48.852;9.936;2023-04-08T01:40:27;16.85;;;8.10;;
47960;SDS011;33721;48.852;9.936;2023-04-08T01:42:55;16.00;;;8.23;;
47960;SDS011;33721;48.852;9.936;2023-04-08T01:45:21;17.45;;;7.93;;
47960;SDS011;33721;48.852;9.936;2023-04-08T01:47:48;13.43;;;7.43;;
47960;SDS011;33721;48.852;9.936;2023-04-08T01:50:14;11.90;;;6.97;;
47960;SDS011;33721;48.852;9.936;2023-04-08T01:52:44;16.77;;;7.78;;
47960;SDS011;33721;48.852;9.936;2023-04-08T01:55:12;12.23;;;7.47;;
47960;SDS011;33721;48.852;9.936;2023-04-08T01:57:38;16.25;;;7.72;;
47960;SDS011;33721;48.852;9.936;2023-04-08T02:00:08;12.98;;;7.68;;
47960;SDS011;33721;48.852;9.936;2023-04-08T02:02:37;14.77;;;7.80;;
47960;SDS011;33721;48.852;9.936;2023-04-08T02:05:05;14.10;;;7.70;;
47960;SDS011;33721;48.852;9.936;2023-04-08T02:07:31;12.57;;;7.45;;
47960;SDS011;33721;48.852;9.936;2023-04-08T02:09:57;13.13;;;7.57;;
47960;SDS011;33721;48.852;9.936;2023-04-08T02:12:23;14.65;;;7.53;;
47960;SDS011;33721;48.852;9.936;2023-04-08T02:14:49;12.65;;;7.05;;
47960;SDS011;33721;48.852;9.936;2023-04-08T02:17:20;14.32;;;7.25;;
47960;SDS011;33721;48.852;9.936;2023-04-08T02:20:02;18.27;;;7.38;;
47960;SDS011;33721;48.852;9.936;2023-04-08T02:25:10;15.90;;;7.63;;
47960;SDS011;33721;48.852;9.936;2023-04-08T02:27:38;14.03;;;7.23;;
47960;SDS011;33721;48.852;9.936;2023-04-08T02:30:05;13.35;;;7.75;;
47960;SDS011;33721;48.852;9.936;2023-04-08T02:32:32;14.10;;;7.90;;
47960;SDS011;33721;48.852;9.936;2023-04-08T02:34:59;14.00;;;8.05;;
47960;SDS011;33721;48.852;9.936;2023-04-08T02:37:31;17.17;;;9.02;;
47960;SDS011;33721;48.852;9.936;2023-04-08T02:39:57;18.35;;;9.00;;
47960;SDS011;33721;48.852;9.936;2023-04-08T02:42:23;18.95;;;9.10;;
47960;SDS011;33721;48.852;9.936;2023-04-08T02:44:49;18.55;;;9.50;;
47960;SDS011;33721;48.852;9.936;2023-04-08T02:47:15;16.70;;;9.05;;
47960;SDS011;33721;48.852;9.936;2023-04-08T02:49:41;17.73;;;9.23;;
47960;SDS011;33721;48.852;9.936;2023-04-08T02:52:06;21.10;;;9.85;;
47960;SDS011;33721;48.852;9.936;2023-04-08T02:54:32;18.17;;;9.18;;
47960;SDS011;33721;48.852;9.936;2023-04-08T02:56:58;19.60;;;9.98;;
47960;SDS011;33721;48.852;9.936;2023-04-08T02:59:23;22.02;;;10.48;;
47960;SDS011;33721;48.852;9.936;2023-04-08T03:01:49;21.17;;;10.27;;
47960;SDS011;33721;48.852;9.936;2023-04-08T03:04:15;21.40;;;10.45;;
47960;SDS011;33721;48.852;9.936;2023-04-08T03:06:40;21.52;;;10.40;;
47960;SDS011;33721;48.852;9.936;2023-04-08T03:09:06;29.67;;;12.63;;
47960;SDS011;33721;48.852;9.936;2023-04-08T03:11:31;27.63;;;12.45;;
47960;SDS011;33721;48.852;9.936;2023-04-08T03:13:57;25.17;;;12.40;;
47960;SDS011;33721;48.852;9.936;2023-04-08T03:16:23;31.50;;;13.35;;
47960;SDS011;33721;48.852;9.936;2023-04-08T03:18:49;30.65;;;13.82;;
47960;SDS011;33721;48.852;9.936;2023-04-08T03:21:18;30.73;;;13.35;;
47960;SDS011;33721;48.852;9.936;2023-04-08T03:23:44;30.02;;;13.23;;
47960;SDS011;33721;48.852;9.936;2023-04-08T03:26:10;28.30;;;13.20;;
47960;SDS011;33721;48.852;9.936;2023-04-08T03:28:35;32.92;;;13.48;;
47960;SDS011;33721;48.852;9.936;2023-04-08T03:31:04;33.05;;;13.30;;
47960;SDS011;33721;48.852;9.936;2023-04-08T03:33:30;30.23;;;13.77;;
47960;SDS011;33721;48.852;9.936;2023-04-08T03:35:55;32.20;;;14.45;;
47960;SDS011;33721;48.852;9.936;2023-04-08T03:38:21;31.58;;;14.32;;
47960;SDS011;33721;48.852;9.936;2023-04-08T03:40:47;31.70;;;13.85;;
47960;SDS011;33721;48.852;9.936;2023-04-08T03:43:13;36.50;;;14.27;;
47960;SDS011;33721;48.852;9.936;2023-04-08T03:45:39;31.77;;;14.07;;
47960;SDS011;33721;48.852;9.936;2023-04-08T03:48:05;32.55;;;14.10;;
47960;SDS011;33721;48.852;9.936;2023-04-08T03:50:30;30.35;;;13.95;;
47960;SDS011;33721;48.852;9.936;2023-04-08T03:52:56;30.08;;;14.40;;
47960;SDS011;33721;48.852;9.936;2023-04-08T03:55:22;32.03;;;14.27;;
47960;SDS011;33721;48.852;9.936;2023-04-08T03:57:47;30.52;;;14.20;;
47960;SDS011;33721;48.852;9.936;2023-04-08T04:00:13;36.88;;;15.48;;
47960;SDS011;33721;48.852;9.936;2023-04-08T04:02:39;38.25;;;15.65;;
47960;SDS011;33721;48.852;9.936;2023-04-08T04:05:05;32.15;;;15.10;;
47960;SDS011;33721;48.852;9.936;2023-04-08T04:07:31;32.95;;;15.00;;
47960;SDS011;33721;48.852;9.936;2023-04-08T04:09:56;37.67;;;16.50;;
47960;SDS011;33721;48.852;9.936;2023-04-08T04:12:22;33.88;;;15.27;;
47960;SDS011;33721;48.852;9.936;2023-04-08T04:14:48;35.80;;;15.48;;
47960;SDS011;33721;48.852;9.936;2023-04-08T04:17:13;40.10;;;16.58;;
47960;SDS011;33721;48.852;9.936;2023-04-08T04:19:39;35.67;;;16.05;;
47960;SDS011;33721;48.852;9.936;2023-04-08T04:22:05;33.30;;;15.32;;
47960;SDS011;33721;48.852;9.936;2023-04-08T04:24:30;36.50;;;15.45;;
47960;SDS011;33721;48.852;9.936;2023-04-08T04:26:56;32.03;;;15.00;;
47960;SDS011;33721;48.852;9.936;2023-04-08T04:29:22;35.75;;;15.93;;
47960;SDS011;33721;48.852;9.936;2023-04-08T04:31:47;34.33;;;15.27;;
47960;SDS011;33721;48.852;9.936;2023-04-08T04:34:13;32.28;;;15.10;;
47960;SDS011;33721;48.852;9.936;2023-04-08T04:36:39;34.38;;;16.73;;
47960;SDS011;33721;48.852;9.936;2023-04-08T04:39:04;36.38;;;16.08;;
47960;SDS011;33721;48.852;9.936;2023-04-08T04:41:30;32.47;;;15.63;;
47960;SDS011;33721;48.852;9.936;2023-04-08T04:43:56;35.08;;;15.15;;
47960;SDS011;33721;48.852;9.936;2023-04-08T04:46:21;34.67;;;16.20;;
47960;SDS011;33721;48.852;9.936;2023-04-08T04:48:47;31.50;;;15.45;;
47960;SDS011;33721;48.852;9.936;2023-04-08T04:51:13;34.70;;;15.68;;
47960;SDS011;33721;48.852;9.936;2023-04-08T04:53:38;33.70;;;15.90;;
47960;SDS011;33721;48.852;9.936;2023-04-08T04:56:04;33.25;;;16.10;;
47960;SDS011;33721;48.852;9.936;2023-04-08T04:58:30;32.50;;;15.48;;
47960;SDS011;33721;48.852;9.936;2023-04-08T05:00:56;31.10;;;15.07;;
47960;SDS011;33721;48.852;9.936;2023-04-08T05:03:22;31.90;;;15.02;;
47960;SDS011;33721;48.852;9.936;2023-04-08T05:05:51;31.70;;;14.70;;
47960;SDS011;33721;48.852;9.936;2023-04-08T05:08:17;32.05;;;14.95;;
47960;SDS011;33721;48.852;9.936;2023-04-08T05:10:43;29.60;;;13.57;;
47960;SDS011;33721;48.852;9.936;2023-04-08T05:13:09;31.63;;;14.07;;
47960;SDS011;33721;48.852;9.936;2023-04-08T05:15:35;33.70;;;15.20;;
47960;SDS011;33721;48.852;9.936;2023-04-08T05:18:00;31.13;;;15.25;;
47960;SDS011;33721;48.852;9.936;2023-04-08T05:20:26;30.73;;;13.95;;
47960;SDS011;33721;48.852;9.936;2023-04-08T05:22:52;29.90;;;13.82;;
47960;SDS011;33721;48.852;9.936;2023-04-08T05:25:18;28.50;;;13.15;;
47960;SDS011;33721;48.852;9.936;2023-04-08T05:27:43;32.05;;;14.25;;
47960;SDS011;33721;48.852;9.936;2023-04-08T05:30:09;32.95;;;14.15;;
47960;SDS011;33721;48.852;9.936;2023-04-08T05:32:35;33.75;;;15.30;;
47960;SDS011;33721;48.852;9.936;2023-04-08T05:35:01;31.67;;;14.93;;
47960;SDS011;33721;48.852;9.936;2023-04-08T05:37:27;32.78;;;14.95;;
47960;SDS011;33721;48.852;9.936;2023-04-08T05:39:53;33.58;;;16.08;;
47960;SDS011;33721;48.852;9.936;2023-04-08T05:42:19;31.75;;;15.93;;
47960;SDS011;33721;48.852;9.936;2023-04-08T05:44:44;35.45;;;16.83;;
47960;SDS011;33721;48.852;9.936;2023-04-08T05:47:10;33.75;;;15.50;;
47960;SDS011;33721;48.852;9.936;2023-04-08T05:49:35;35.28;;;15.85;;
47960;SDS011;33721;48.852;9.936;2023-04-08T05:52:01;34.63;;;15.57;;
47960;SDS011;33721;48.852;9.936;2023-04-08T05:54:27;34.10;;;16.33;;
47960;SDS011;33721;48.852;9.936;2023-04-08T05:56:53;36.00;;;16.88;;
47960;SDS011;33721;48.852;9.936;2023-04-08T05:59:19;36.60;;;16.77;;
47960;SDS011;33721;48.852;9.936;2023-04-08T06:01:45;35.72;;;16.40;;
47960;SDS011;33721;48.852;9.936;2023-04-08T06:04:10;37.38;;;16.25;;
47960;SDS011;33721;48.852;9.936;2023-04-08T06:06:36;35.05;;;16.63;;
47960;SDS011;33721;48.852;9.936;2023-04-08T06:09:03;37.70;;;16.38;;
47960;SDS011;33721;48.852;9.936;2023-04-08T06:11:29;36.58;;;16.83;;
47960;SDS011;33721;48.852;9.936;2023-04-08T06:13:55;36.17;;;16.48;;
47960;SDS011;33721;48.852;9.936;2023-04-08T06:16:20;32.75;;;15.35;;
47960;SDS011;33721;48.852;9.936;2023-04-08T06:18:46;35.63;;;16.15;;
47960;SDS011;33721;48.852;9.936;2023-04-08T06:21:12;37.13;;;16.42;;
47960;SDS011;33721;48.852;9.936;2023-04-08T06:23:37;37.78;;;16.38;;
47960;SDS011;33721;48.852;9.936;2023-04-08T06:26:03;33.58;;;15.65;;
47960;SDS011;33721;48.852;9.936;2023-04-08T06:28:29;32.80;;;15.75;;
47960;SDS011;33721;48.852;9.936;2023-04-08T06:30:55;33.17;;;15.07;;
47960;SDS011;33721;48.852;9.936;2023-04-08T06:33:21;35.97;;;16.23;;
47960;SDS011;33721;48.852;9.936;2023-04-08T06:35:47;36.00;;;16.30;;
47960;SDS011;33721;48.852;9.936;2023-04-08T06:38:12;34.85;;;15.75;;
47960;SDS011;33721;48.852;9.936;2023-04-08T06:40:38;33.55;;;15.38;;
47960;SDS011;33721;48.852;9.936;2023-04-08T06:43:04;31.60;;;15.43;;
47960;SDS011;33721;48.852;9.936;2023-04-08T06:45:31;33.80;;;16.17;;
47960;SDS011;33721;48.852;9.936;2023-04-08T06:47:57;35.75;;;15.68;;
47960;SDS011;33721;48.852;9.936;2023-04-08T06:50:23;34.78;;;15.85;;
47960;SDS011;33721;48.852;9.936;2023-04-08T06:52:49;36.20;;;16.00;;
47960;SDS011;33721;48.852;9.936;2023-04-08T06:55:15;35.70;;;16.55;;
47960;SDS011;33721;48.852;9.936;2023-04-08T06:57:41;41.90;;;16.80;;
47960;SDS011;33721;48.852;9.936;2023-04-08T07:00:06;33.63;;;15.52;;
47960;SDS011;33721;48.852;9.936;2023-04-08T07:02:32;31.58;;;15.73;;
47960;SDS011;33721;48.852;9.936;2023-04-08T07:04:58;35.85;;;16.38;;
47960;SDS011;33721;48.852;9.936;2023-04-08T07:07:24;33.92;;;16.25;;
47960;SDS011;33721;48.852;9.936;2023-04-08T07:09:50;33.38;;;15.90;;
47960;SDS011;33721;48.852;9.936;2023-04-08T07:12:15;39.13;;;17.50;;
47960;SDS011;33721;48.852;9.936;2023-04-08T07:14:41;37.20;;;17.02;;
47960;SDS011;33721;48.852;9.936;2023-04-08T07:17:07;35.60;;;17.25;;
47960;SDS011;33721;48.852;9.936;2023-04-08T07:19:32;37.10;;;17.00;;
47960;SDS011;33721;48.852;9.936;2023-04-08T07:21:58;34.10;;;17.40;;
47960;SDS011;33721;48.852;9.936;2023-04-08T07:24:24;35.42;;;16.58;;
47960;SDS011;33721;48.852;9.936;2023-04-08T07:26:51;38.65;;;18.27;;
47960;SDS011;33721;48.852;9.936;2023-04-08T07:29:16;34.72;;;17.30;;
47960;SDS011;33721;48.852;9.936;2023-04-08T07:31:42;31.58;;;16.05;;
47960;SDS011;33721;48.852;9.936;2023-04-08T07:34:08;32.92;;;16.45;;
47960;SDS011;33721;48.852;9.936;2023-04-08T07:36:34;30.98;;;16.58;;
47960;SDS011;33721;48.852;9.936;2023-04-08T07:39:00;30.33;;;16.27;;
47960;SDS011;33721;48.852;9.936;2023-04-08T07:41:26;31.25;;;16.33;;
47960;SDS011;33721;48.852;9.936;2023-04-08T07:43:51;27.80;;;15.48;;
47960;SDS011;33721;48.852;9.936;2023-04-08T07:46:17;31.40;;;16.40;;
47960;SDS011;33721;48.852;9.936;2023-04-08T07:48:44;32.67;;;16.15;;
47960;SDS011;33721;48.852;9.936;2023-04-08T07:51:09;33.25;;;16.20;;
47960;SDS011;33721;48.852;9.936;2023-04-08T07:53:35;35.28;;;17.73;;
47960;SDS011;33721;48.852;9.936;2023-04-08T07:56:01;32.70;;;16.92;;
47960;SDS011;33721;48.852;9.936;2023-04-08T07:58:30;34.20;;;16.30;;
47960;SDS011;33721;48.852;9.936;2023-04-08T08:00:56;33.05;;;16.92;;
47960;SDS011;33721;48.852;9.936;2023-04-08T08:03:22;30.00;;;15.95;;
47960;SDS011;33721;48.852;9.936;2023-04-08T08:05:48;32.88;;;15.88;;
47960;SDS011;33721;48.852;9.936;2023-04-08T08:08:13;33.22;;;16.83;;
47960;SDS011;33721;48.852;9.936;2023-04-08T08:10:39;29.70;;;14.35;;
47960;SDS011;33721;48.852;9.936;2023-04-08T08:13:05;34.53;;;16.60;;
47960;SDS011;33721;48.852;9.936;2023-04-08T08:15:32;34.78;;;17.02;;
47960;SDS011;33721;48.852;9.936;2023-04-08T08:17:58;34.97;;;16.83;;
47960;SDS011;33721;48.852;9.936;2023-04-08T08:20:23;32.20;;;15.70;;
47960;SDS011;33721;48.852;9.936;2023-04-08T08:22:49;33.58;;;15.82;;
47960;SDS011;33721;48.852;9.936;2023-04-08T08:25:15;33.47;;;15.63;;
47960;SDS011;33721;48.852;9.936;2023-04-08T08:27:41;32.00;;;16.50;;
47960;SDS011;33721;48.852;9.936;2023-04-08T08:30:08;30.92;;;16.33;;
47960;SDS011;33721;48.852;9.936;2023-04-08T08:32:34;29.52;;;15.63;;
47960;SDS011;33721;48.852;9.936;2023-04-08T08:35:00;34.45;;;16.40;;
47960;SDS011;33721;48.852;9.936;2023-04-08T08:37:26;30.80;;;16.15;;
47960;SDS011;33721;48.852;9.936;2023-04-08T08:39:51;29.58;;;15.32;;
47960;SDS011;33721;48.852;9.936;2023-04-08T08:42:20;31.98;;;16.00;;
47960;SDS011;33721;48.852;9.936;2023-04-08T08:44:47;33.63;;;15.75;;
47960;SDS011;33721;48.852;9.936;2023-04-08T08:47:13;31.15;;;15.02;;
47960;SDS011;33721;48.852;9.936;2023-04-08T08:49:39;26.50;;;14.00;;
47960;SDS011;33721;48.852;9.936;2023-04-08T08:52:05;31.15;;;15.85;;
47960;SDS011;33721;48.852;9.936;2023-04-08T08:54:31;29.48;;;15.40;;
47960;SDS011;33721;48.852;9.936;2023-04-08T08:56:57;28.55;;;14.82;;
47960;SDS011;33721;48.852;9.936;2023-04-08T08:59:23;27.42;;;14.50;;
47960;SDS011;33721;48.852;9.936;2023-04-08T09:01:48;27.40;;;14.93;;
47960;SDS011;33721;48.852;9.936;2023-04-08T09:04:15;29.38;;;15.32;;
47960;SDS011;33721;48.852;9.936;2023-04-08T09:07:08;26.75;;;14.23;;
47960;SDS011;33721;48.852;9.936;2023-04-08T09:09:49;27.83;;;14.43;;
47960;SDS011;33721;48.852;9.936;2023-04-08T09:12:15;26.08;;;13.60;;
47960;SDS011;33721;48.852;9.936;2023-04-08T09:14:41;26.25;;;13.52;;
47960;SDS011;33721;48.852;9.936;2023-04-08T09:17:07;26.13;;;14.07;;
47960;SDS011;33721;48.852;9.936;2023-04-08T09:19:32;25.30;;;13.75;;
47960;SDS011;33721;48.852;9.936;2023-04-08T09:24:31;28.23;;;13.93;;
47960;SDS011;33721;48.852;9.936;2023-04-08T09:26:57;24.70;;;13.15;;
47960;SDS011;33721;48.852;9.936;2023-04-08T09:29:24;25.05;;;13.00;;
47960;SDS011;33721;48.852;9.936;2023-04-08T09:31:53;28.98;;;13.38;;
47960;SDS011;33721;48.852;9.936;2023-04-08T09:34:20;26.67;;;13.98;;
47960;SDS011;33721;48.852;9.936;2023-04-08T09:36:47;24.63;;;13.48;;
47960;SDS011;33721;48.852;9.936;2023-04-08T09:39:13;25.35;;;14.10;;
47960;SDS011;33721;48.852;9.936;2023-04-08T09:41:39;27.30;;;14.55;;
47960;SDS011;33721;48.852;9.936;2023-04-08T09:44:07;29.63;;;15.05;;
47960;SDS011;33721;48.852;9.936;2023-04-08T09:55:13;30.23;;;14.45;;
47960;SDS011;33721;48.852;9.936;2023-04-08T09:57:51;26.95;;;13.73;;
47960;SDS011;33721;48.852;9.936;2023-04-08T10:00:14;28.67;;;13.95;;
47960;SDS011;33721;48.852;9.936;2023-04-08T10:05:36;28.70;;;14.18;;
47960;SDS011;33721;48.852;9.936;2023-04-08T10:08:03;28.10;;;13.23;;
47960;SDS011;33721;48.852;9.936;2023-04-08T10:10:30;31.20;;;14.45;;
47960;SDS011;33721;48.852;9.936;2023-04-08T10:12:58;38.15;;;17.60;;
47960;SDS011;33721;48.852;9.936;2023-04-08T10:15:27;30.08;;;14.98;;
47960;SDS011;33721;48.852;9.936;2023-04-08T10:17:54;33.17;;;14.82;;
47960;SDS011;33721;48.852;9.936;2023-04-08T10:20:44;28.42;;;13.73;;
47960;SDS011;33721;48.852;9.936;2023-04-08T10:23:12;27.40;;;13.75;;
47960;SDS011;33721;48.852;9.936;2023-04-08T10:25:43;25.92;;;13.75;;
47960;SDS011;33721;48.852;9.936;2023-04-08T10:30:38;24.50;;;12.45;;
47960;SDS011;33721;48.852;9.936;2023-04-08T10:33:11;25.77;;;12.68;;
47960;SDS011;33721;48.852;9.936;2023-04-08T10:35:39;24.25;;;12.65;;
47960;SDS011;33721;48.852;9.936;2023-04-08T10:38:26;27.45;;;12.50;;
47960;SDS011;33721;48.852;9.936;2023-04-08T10:40:52;24.98;;;12.52;;
47960;SDS011;33721;48.852;9.936;2023-04-08T10:43:18;22.90;;;12.38;;
47960;SDS011;33721;48.852;9.936;2023-04-08T10:45:44;27.13;;;13.38;;
47960;SDS011;33721;48.852;9.936;2023-04-08T10:48:23;35.75;;;18.08;;
47960;SDS011;33721;48.852;9.936;2023-04-08T10:50:53;28.40;;;13.45;;
47960;SDS011;33721;48.852;9.936;2023-04-08T10:53:24;24.42;;;11.95;;
47960;SDS011;33721;48.852;9.936;2023-04-08T10:56:30;39.67;;;15.90;;
47960;SDS011;33721;48.852;9.936;2023-04-08T10:58:52;25.15;;;11.95;;
47960;SDS011;33721;48.852;9.936;2023-04-08T11:01:23;27.65;;;12.98;;
47960;SDS011;33721;48.852;9.936;2023-04-08T11:03:48;24.15;;;11.98;;
47960;SDS011;33721;48.852;9.936;2023-04-08T11:06:15;38.28;;;16.27;;
47960;SDS011;33721;48.852;9.936;2023-04-08T11:08:42;27.13;;;13.43;;
47960;SDS011;33721;48.852;9.936;2023-04-08T11:11:09;31.20;;;14.85;;
47960;SDS011;33721;48.852;9.936;2023-04-08T11:13:42;35.28;;;16.05;;
47960;SDS011;33721;48.852;9.936;2023-04-08T11:16:09;22.17;;;12.00;;
47960;SDS011;33721;48.852;9.936;2023-04-08T11:18:39;22.45;;;11.80;;
47960;SDS011;33721;48.852;9.936;2023-04-08T11:21:08;25.92;;;12.70;;
47960;SDS011;33721;48.852;9.936;2023-04-08T11:23:35;25.77;;;12.10;;
47960;SDS011;33721;48.852;9.936;2023-04-08T11:26:01;23.00;;;11.90;;
47960;SDS011;33721;48.852;9.936;2023-04-08T11:28:27;22.30;;;12.65;;
47960;SDS011;33721;48.852;9.936;2023-04-08T11:30:54;22.42;;;10.77;;
47960;SDS011;33721;48.852;9.936;2023-04-08T11:33:20;23.10;;;11.70;;
47960;SDS011;33721;48.852;9.936;2023-04-08T11:35:49;23.20;;;12.32;;
47960;SDS011;33721;48.852;9.936;2023-04-08T11:38:15;23.10;;;11.10;;
47960;SDS011;33721;48.852;9.936;2023-04-08T11:40:52;20.23;;;10.48;;
47960;SDS011;33721;48.852;9.936;2023-04-08T11:43:18;24.65;;;11.30;;
47960;SDS011;33721;48.852;9.936;2023-04-08T11:45:44;25.98;;;11.30;;
47960;SDS011;33721;48.852;9.936;2023-04-08T11:48:10;18.38;;;10.98;;
47960;SDS011;33721;48.852;9.936;2023-04-08T11:50:37;19.65;;;10.35;;
47960;SDS011;33721;48.852;9.936;2023-04-08T11:53:17;18.90;;;10.13;;
47960;SDS011;33721;48.852;9.936;2023-04-08T11:55:46;18.95;;;10.15;;
47960;SDS011;33721;48.852;9.936;2023-04-08T11:58:12;21.02;;;9.77;;
47960;SDS011;33721;48.852;9.936;2023-04-08T12:00:39;21.15;;;10.13;;
47960;SDS011;33721;48.852;9.936;2023-04-08T12:03:05;17.80;;;9.50;;
47960;SDS011;33721;48.852;9.936;2023-04-08T12:05:31;18.45;;;9.30;;
47960;SDS011;33721;48.852;9.936;2023-04-08T12:07:57;19.75;;;10.30;;
47960;SDS011;33721;48.852;9.936;2023-04-08T12:10:23;19.48;;;10.00;;
47960;SDS011;33721;48.852;9.936;2023-04-08T12:12:51;16.33;;;9.38;;
47960;SDS011;33721;48.852;9.936;2023-04-08T12:15:17;17.38;;;9.38;;
47960;SDS011;33721;48.852;9.936;2023-04-08T12:17:43;20.05;;;9.63;;
47960;SDS011;33721;48.852;9.936;2023-04-08T12:20:09;16.52;;;8.98;;
47960;SDS011;33721;48.852;9.936;2023-04-08T12:22:36;19.50;;;9.48;;
47960;SDS011;33721;48.852;9.936;2023-04-08T12:25:02;17.17;;;9.27;;
47960;SDS011;33721;48.852;9.936;2023-04-08T12:27:29;17.98;;;9.50;;
47960;SDS011;33721;48.852;9.936;2023-04-08T12:29:57;20.08;;;9.43;;
47960;SDS011;33721;48.852;9.936;2023-04-08T12:32:23;19.10;;;8.93;;
47960;SDS011;33721;48.852;9.936;2023-04-08T12:34:49;19.17;;;9.80;;
47960;SDS011;33721;48.852;9.936;2023-04-08T12:37:15;18.27;;;9.65;;
47960;SDS011;33721;48.852;9.936;2023-04-08T12:39:41;16.92;;;9.82;;
47960;SDS011;33721;48.852;9.936;2023-04-08T12:42:07;19.65;;;9.98;;
47960;SDS011;33721;48.852;9.936;2023-04-08T12:44:33;20.33;;;10.68;;
47960;SDS011;33721;48.852;9.936;2023-04-08T12:46:58;18.65;;;10.25;;
47960;SDS011;33721;48.852;9.936;2023-04-08T12:49:24;18.13;;;9.93;;
47960;SDS011;33721;48.852;9.936;2023-04-08T12:51:50;19.60;;;10.15;;
47960;SDS011;33721;48.852;9.936;2023-04-08T12:54:16;23.02;;;10.48;;
47960;SDS011;33721;48.852;9.936;2023-04-08T12:56:41;22.42;;;11.55;;
47960;SDS011;33721;48.852;9.936;2023-04-08T12:59:07;18.27;;;10.82;;
47960;SDS011;33721;48.852;9.936;2023-04-08T13:01:33;19.92;;;10.57;;
47960;SDS011;33721;48.852;9.936;2023-04-08T13:03:59;19.25;;;10.25;;
47960;SDS011;33721;48.852;9.936;2023-04-08T13:06:25;19.15;;;10.68;;
47960;SDS011;33721;48.852;9.936;2023-04-08T13:08:51;17.80;;;9.85;;
47960;SDS011;33721;48.852;9.936;2023-04-08T13:11:17;20.85;;;10.02;;
47960;SDS011;33721;48.852;9.936;2023-04-08T13:13:43;20.02;;;9.48;;
47960;SDS011;33721;48.852;9.936;2023-04-08T13:16:10;17.08;;;9.13;;
47960;SDS011;33721;48.852;9.936;2023-04-08T13:18:38;19.05;;;10.38;;
47960;SDS011;33721;48.852;9.936;2023-04-08T13:21:05;22.83;;;12.45;;
47960;SDS011;33721;48.852;9.936;2023-04-08T13:23:31;19.20;;;10.27;;
47960;SDS011;33721;48.852;9.936;2023-04-08T13:25:56;20.52;;;11.23;;
47960;SDS011;33721;48.852;9.936;2023-04-08T13:28:22;20.77;;;10.55;;
47960;SDS011;33721;48.852;9.936;2023-04-08T13:30:47;21.98;;;11.20;;
47960;SDS011;33721;48.852;9.936;2023-04-08T13:33:13;18.85;;;11.10;;
47960;SDS011;33721;48.852;9.936;2023-04-08T13:35:39;18.25;;;10.52;;
47960;SDS011;33721;48.852;9.936;2023-04-08T13:38:05;21.13;;;11.18;;
47960;SDS011;33721;48.852;9.936;2023-04-08T13:40:30;22.83;;;12.32;;
47960;SDS011;33721;48.852;9.936;2023-04-08T13:42:57;17.77;;;9.93;;
47960;SDS011;33721;48.852;9.936;2023-04-08T13:45:23;17.70;;;9.98;;
47960;SDS011;33721;48.852;9.936;2023-04-08T13:47:48;21.13;;;11.38;;
47960;SDS011;33721;48.852;9.936;2023-04-08T13:50:14;18.90;;;9.80;;
47960;SDS011;33721;48.852;9.936;2023-04-08T13:52:40;16.42;;;9.90;;
47960;SDS011;33721;48.852;9.936;2023-04-08T13:55:06;21.52;;;10.32;;
47960;SDS011;33721;48.852;9.936;2023-04-08T13:57:31;19.77;;;9.18;;
47960;SDS011;33721;48.852;9.936;2023-04-08T13:59:57;22.27;;;11.13;;
47960;SDS011;33721;48.852;9.936;2023-04-08T14:02:23;18.67;;;9.80;;
47960;SDS011;33721;48.852;9.936;2023-04-08T14:04:48;17.85;;;9.75;;
47960;SDS011;33721;48.852;9.936;2023-04-08T14:07:14;17.02;;;9.77;;
47960;SDS011;33721;48.852;9.936;2023-04-08T14:09:40;15.40;;;8.57;;
47960;SDS011;33721;48.852;9.936;2023-04-08T14:12:05;17.77;;;8.70;;
47960;SDS011;33721;48.852;9.936;2023-04-08T14:14:31;16.55;;;8.13;;
47960;SDS011;33721;48.852;9.936;2023-04-08T14:16:57;21.77;;;11.88;;
47960;SDS011;33721;48.852;9.936;2023-04-08T14:19:23;16.55;;;9.73;;
47960;SDS011;33721;48.852;9.936;2023-04-08T14:21:49;22.83;;;11.07;;
47960;SDS011;33721;48.852;9.936;2023-04-08T14:24:15;18.20;;;8.93;;
47960;SDS011;33721;48.852;9.936;2023-04-08T14:26:41;15.43;;;8.07;;
47960;SDS011;33721;48.852;9.936;2023-04-08T14:29:06;18.98;;;9.63;;
47960;SDS011;33721;48.852;9.936;2023-04-08T14:31:33;14.23;;;8.13;;
47960;SDS011;33721;48.852;9.936;2023-04-08T14:33:59;14.23;;;8.00;;
47960;SDS011;33721;48.852;9.936;2023-04-08T14:36:25;15.82;;;9.27;;
47960;SDS011;33721;48.852;9.936;2023-04-08T14:38:55;16.15;;;8.77;;
47960;SDS011;33721;48.852;9.936;2023-04-08T14:41:21;16.95;;;8.80;;
47960;SDS011;33721;48.852;9.936;2023-04-08T14:43:47;15.77;;;9.05;;